Terminal Aerodrome Forecast
Issued by NWS

Home | Current Version | Previous Version | Text Only | Print | Product List | Glossary Off
Versions: 1 2 3 4 5 6 7 8 9 10 11 12 13 14 15 16 17

000
FTUS43 KICT 271700
TAFHUT
TAF
KHUT 271721Z 2718/2818 34015G24KT P6SM BKN200
     FM280000 35011KT P6SM BKN100
     FM280800 34005KT P6SM BKN120=

USA.gov is the U.S. government's official web portal to all federal, state and local government web resources and services.